sensor_id;sensor_type;location;lat;lon;timestamp;pressure;altitude;pressure_sealevel;temperature;humidity
28448;BME280;15675;52.870;-1.416;2023-05-22T00:00:23;101690.19;;;15.33;55.18
28448;BME280;15675;52.870;-1.416;2023-05-22T00:02:50;101693.69;;;15.09;55.87
28448;BME280;15675;52.870;-1.416;2023-05-22T00:05:16;101688.47;;;15.09;55.96
28448;BME280;15675;52.870;-1.416;2023-05-22T00:07:42;101677.97;;;14.78;56.19
28448;BME280;15675;52.870;-1.416;2023-05-22T00:10:09;101679.63;;;14.47;57.42
28448;BME280;15675;52.870;-1.416;2023-05-22T00:12:35;101677.94;;;14.66;57.48
28448;BME280;15675;52.870;-1.416;2023-05-22T00:15:01;101676.09;;;14.29;57.98
28448;BME280;15675;52.870;-1.416;2023-05-22T00:17:28;101670.81;;;14.12;58.64
28448;BME280;15675;52.870;-1.416;2023-05-22T00:19:55;101676.81;;;14.02;59.37
28448;BME280;15675;52.870;-1.416;2023-05-22T00:22:26;101676.88;;;14.11;59.21
28448;BME280;15675;52.870;-1.416;2023-05-22T00:24:52;101674.19;;;13.96;59.53
28448;BME280;15675;52.870;-1.416;2023-05-22T00:27:18;101684.38;;;13.50;60.77
28448;BME280;15675;52.870;-1.416;2023-05-22T00:29:44;101693.47;;;12.97;62.69
28448;BME280;15675;52.870;-1.416;2023-05-22T00:32:10;101696.19;;;13.10;63.77
28448;BME280;15675;52.870;-1.416;2023-05-22T00:34:36;101688.19;;;12.89;64.38
28448;BME280;15675;52.870;-1.416;2023-05-22T00:37:02;101687.66;;;13.27;63.75
28448;BME280;15675;52.870;-1.416;2023-05-22T00:39:27;101685.25;;;13.55;63.09
28448;BME280;15675;52.870;-1.416;2023-05-22T00:41:53;101683.63;;;13.69;61.72
28448;BME280;15675;52.870;-1.416;2023-05-22T00:44:19;101674.22;;;14.02;61.32
28448;BME280;15675;52.870;-1.416;2023-05-22T00:46:45;101678.72;;;14.40;60.38
28448;BME280;15675;52.870;-1.416;2023-05-22T00:49:11;101667.50;;;14.67;58.95
28448;BME280;15675;52.870;-1.416;2023-05-22T00:51:37;101663.16;;;14.91;58.87
28448;BME280;15675;52.870;-1.416;2023-05-22T00:54:04;101662.31;;;15.12;58.25
28448;BME280;15675;52.870;-1.416;2023-05-22T00:56:30;101665.78;;;15.24;57.83
28448;BME280;15675;52.870;-1.416;2023-05-22T00:58:57;101657.94;;;15.19;57.35
28448;BME280;15675;52.870;-1.416;2023-05-22T01:01:23;101664.91;;;15.08;57.18
28448;BME280;15675;52.870;-1.416;2023-05-22T01:03:51;101666.66;;;14.90;57.15
28448;BME280;15675;52.870;-1.416;2023-05-22T01:06:18;101670.03;;;14.35;58.07
28448;BME280;15675;52.870;-1.416;2023-05-22T01:08:46;101670.72;;;13.94;58.65
28448;BME280;15675;52.870;-1.416;2023-05-22T01:11:17;101664.19;;;13.28;60.68
28448;BME280;15675;52.870;-1.416;2023-05-22T01:13:56;101661.63;;;13.32;60.16
28448;BME280;15675;52.870;-1.416;2023-05-22T01:16:36;101661.75;;;13.45;60.08
28448;BME280;15675;52.870;-1.416;2023-05-22T01:19:17;101657.44;;;13.54;60.62
28448;BME280;15675;52.870;-1.416;2023-05-22T01:22:18;101659.06;;;13.39;60.88
28448;BME280;15675;52.870;-1.416;2023-05-22T01:25:15;101649.59;;;13.52;60.81
28448;BME280;15675;52.870;-1.416;2023-05-22T01:28:06;101660.94;;;13.54;60.83
28448;BME280;15675;52.870;-1.416;2023-05-22T01:30:58;101665.13;;;13.35;61.27
28448;BME280;15675;52.870;-1.416;2023-05-22T01:33:25;101659.38;;;13.92;60.57
28448;BME280;15675;52.870;-1.416;2023-05-22T01:35:56;101653.44;;;14.33;59.45
28448;BME280;15675;52.870;-1.416;2023-05-22T01:38:23;101650.72;;;14.02;58.54
28448;BME280;15675;52.870;-1.416;2023-05-22T01:40:50;101656.75;;;13.83;59.05
28448;BME280;15675;52.870;-1.416;2023-05-22T01:43:16;101649.84;;;13.97;59.25
28448;BME280;15675;52.870;-1.416;2023-05-22T01:45:42;101653.88;;;13.41;60.23
28448;BME280;15675;52.870;-1.416;2023-05-22T01:48:08;101644.06;;;13.10;61.95
28448;BME280;15675;52.870;-1.416;2023-05-22T01:50:34;101647.28;;;12.78;63.15
28448;BME280;15675;52.870;-1.416;2023-05-22T01:53:23;101654.63;;;13.29;63.57
28448;BME280;15675;52.870;-1.416;2023-05-22T01:56:13;101652.25;;;13.55;62.56
28448;BME280;15675;52.870;-1.416;2023-05-22T01:58:47;101644.38;;;13.48;61.53
28448;BME280;15675;52.870;-1.416;2023-05-22T02:01:16;101651.53;;;13.83;61.12
28448;BME280;15675;52.870;-1.416;2023-05-22T02:03:45;101652.16;;;13.38;60.69
28448;BME280;15675;52.870;-1.416;2023-05-22T02:06:13;101650.19;;;13.14;61.07
28448;BME280;15675;52.870;-1.416;2023-05-22T02:08:40;101650.56;;;12.57;62.41
28448;BME280;15675;52.870;-1.416;2023-05-22T02:11:08;101641.19;;;12.80;62.93
28448;BME280;15675;52.870;-1.416;2023-05-22T02:13:34;101645.53;;;12.76;62.57
28448;BME280;15675;52.870;-1.416;2023-05-22T02:16:02;101643.03;;;12.88;62.96
28448;BME280;15675;52.870;-1.416;2023-05-22T02:18:29;101657.94;;;13.08;62.70
28448;BME280;15675;52.870;-1.416;2023-05-22T02:20:56;101648.09;;;12.73;62.89
28448;BME280;15675;52.870;-1.416;2023-05-22T02:23:22;101642.13;;;12.02;65.16
28448;BME280;15675;52.870;-1.416;2023-05-22T02:25:48;101642.44;;;11.64;67.58
28448;BME280;15675;52.870;-1.416;2023-05-22T02:28:14;101638.69;;;11.43;69.48
28448;BME280;15675;52.870;-1.416;2023-05-22T02:30:40;101642.03;;;11.34;71.27
28448;BME280;15675;52.870;-1.416;2023-05-22T02:33:06;101636.88;;;11.37;72.48
28448;BME280;15675;52.870;-1.416;2023-05-22T02:35:34;101633.56;;;11.48;72.07
28448;BME280;15675;52.870;-1.416;2023-05-22T02:38:00;101635.66;;;11.75;72.16
28448;BME280;15675;52.870;-1.416;2023-05-22T02:40:26;101627.91;;;11.78;70.86
28448;BME280;15675;52.870;-1.416;2023-05-22T02:42:52;101622.38;;;12.21;69.63
28448;BME280;15675;52.870;-1.416;2023-05-22T02:45:18;101631.69;;;12.00;69.76
28448;BME280;15675;52.870;-1.416;2023-05-22T02:47:44;101623.09;;;12.06;68.94
28448;BME280;15675;52.870;-1.416;2023-05-22T02:50:10;101621.59;;;12.28;68.27
28448;BME280;15675;52.870;-1.416;2023-05-22T02:52:36;101627.06;;;11.81;68.87
28448;BME280;15675;52.870;-1.416;2023-05-22T02:55:04;101620.75;;;11.62;70.26
28448;BME280;15675;52.870;-1.416;2023-05-22T02:57:30;101623.91;;;11.39;71.88
28448;BME280;15675;52.870;-1.416;2023-05-22T02:59:56;101632.22;;;11.74;71.79
28448;BME280;15675;52.870;-1.416;2023-05-22T03:02:25;101634.31;;;12.03;70.92
28448;BME280;15675;52.870;-1.416;2023-05-22T03:04:53;101634.19;;;11.94;70.07
28448;BME280;15675;52.870;-1.416;2023-05-22T03:07:18;101634.94;;;11.87;70.53
28448;BME280;15675;52.870;-1.416;2023-05-22T03:09:46;101631.16;;;11.60;71.13
28448;BME280;15675;52.870;-1.416;2023-05-22T03:12:12;101629.00;;;11.33;72.45
28448;BME280;15675;52.870;-1.416;2023-05-22T03:14:37;101627.88;;;11.15;73.04
28448;BME280;15675;52.870;-1.416;2023-05-22T03:17:04;101626.28;;;11.23;73.37
28448;BME280;15675;52.870;-1.416;2023-05-22T03:19:29;101622.56;;;11.67;72.91
28448;BME280;15675;52.870;-1.416;2023-05-22T03:21:56;101624.09;;;12.17;70.77
28448;BME280;15675;52.870;-1.416;2023-05-22T03:24:22;101624.81;;;12.07;69.76
28448;BME280;15675;52.870;-1.416;2023-05-22T03:26:48;101637.31;;;11.68;70.26
28448;BME280;15675;52.870;-1.416;2023-05-22T03:29:13;101629.44;;;12.31;69.65
28448;BME280;15675;52.870;-1.416;2023-05-22T03:31:39;101633.59;;;13.01;68.41
28448;BME280;15675;52.870;-1.416;2023-05-22T03:34:05;101641.38;;;13.00;65.78
28448;BME280;15675;52.870;-1.416;2023-05-22T03:36:31;101637.84;;;12.93;65.68
28448;BME280;15675;52.870;-1.416;2023-05-22T03:38:58;101635.97;;;12.78;65.65
28448;BME280;15675;52.870;-1.416;2023-05-22T03:41:25;101639.34;;;12.66;66.74
28448;BME280;15675;52.870;-1.416;2023-05-22T03:43:51;101633.59;;;13.04;65.75
28448;BME280;15675;52.870;-1.416;2023-05-22T03:46:17;101638.00;;;13.08;65.03
28448;BME280;15675;52.870;-1.416;2023-05-22T03:48:43;101636.38;;;13.27;64.41
28448;BME280;15675;52.870;-1.416;2023-05-22T03:51:08;101636.38;;;13.27;64.13
28448;BME280;15675;52.870;-1.416;2023-05-22T03:53:34;101638.84;;;13.07;64.15
28448;BME280;15675;52.870;-1.416;2023-05-22T03:56:00;101636.09;;;12.92;64.56
28448;BME280;15675;52.870;-1.416;2023-05-22T03:58:26;101641.31;;;12.93;64.90
28448;BME280;15675;52.870;-1.416;2023-05-22T04:00:53;101628.06;;;12.67;64.38
28448;BME280;15675;52.870;-1.416;2023-05-22T04:03:20;101632.69;;;12.10;66.07
28448;BME280;15675;52.870;-1.416;2023-05-22T04:05:46;101631.09;;;12.23;66.76
28448;BME280;15675;52.870;-1.416;2023-05-22T04:08:12;101637.44;;;11.76;67.70
28448;BME280;15675;52.870;-1.416;2023-05-22T04:10:38;101629.47;;;11.65;69.47
28448;BME280;15675;52.870;-1.416;2023-05-22T04:13:04;101629.88;;;11.32;71.28
28448;BME280;15675;52.870;-1.416;2023-05-22T04:15:30;101635.31;;;10.94;73.89
28448;BME280;15675;52.870;-1.416;2023-05-22T04:17:59;101633.88;;;10.59;76.67
28448;BME280;15675;52.870;-1.416;2023-05-22T04:20:25;101635.31;;;10.43;79.39
28448;BME280;15675;52.870;-1.416;2023-05-22T04:22:51;101639.78;;;10.50;81.35
28448;BME280;15675;52.870;-1.416;2023-05-22T04:25:19;101635.91;;;10.79;81.64
28448;BME280;15675;52.870;-1.416;2023-05-22T04:27:45;101634.34;;;10.87;81.09
28448;BME280;15675;52.870;-1.416;2023-05-22T04:30:13;101635.06;;;11.30;80.09
28448;BME280;15675;52.870;-1.416;2023-05-22T04:32:39;101632.78;;;11.55;77.62
28448;BME280;15675;52.870;-1.416;2023-05-22T04:35:05;101630.38;;;11.67;76.33
28448;BME280;15675;52.870;-1.416;2023-05-22T04:37:31;101628.94;;;11.91;75.15
28448;BME280;15675;52.870;-1.416;2023-05-22T04:39:57;101621.91;;;11.85;74.86
28448;BME280;15675;52.870;-1.416;2023-05-22T04:42:30;101625.69;;;12.04;73.95
28448;BME280;15675;52.870;-1.416;2023-05-22T04:44:56;101634.56;;;12.23;72.75
28448;BME280;15675;52.870;-1.416;2023-05-22T04:47:22;101631.09;;;12.24;73.15
28448;BME280;15675;52.870;-1.416;2023-05-22T04:49:48;101632.94;;;12.33;73.41
28448;BME280;15675;52.870;-1.416;2023-05-22T04:52:16;101634.09;;;11.86;72.83
28448;BME280;15675;52.870;-1.416;2023-05-22T04:54:42;101627.91;;;11.17;76.72
28448;BME280;15675;52.870;-1.416;2023-05-22T04:57:09;101635.41;;;11.00;80.04
28448;BME280;15675;52.870;-1.416;2023-05-22T04:59:35;101633.19;;;10.69;83.06
28448;BME280;15675;52.870;-1.416;2023-05-22T05:02:04;101636.38;;;10.55;86.41
28448;BME280;15675;52.870;-1.416;2023-05-22T05:04:30;101643.34;;;10.59;87.26
28448;BME280;15675;52.870;-1.416;2023-05-22T05:06:56;101637.00;;;10.43;87.87
28448;BME280;15675;52.870;-1.416;2023-05-22T05:09:23;101643.09;;;10.43;89.33
28448;BME280;15675;52.870;-1.416;2023-05-22T05:11:49;101651.38;;;10.71;88.12
28448;BME280;15675;52.870;-1.416;2023-05-22T05:14:15;101650.91;;;10.94;85.34
28448;BME280;15675;52.870;-1.416;2023-05-22T05:16:42;101662.50;;;11.16;83.23
28448;BME280;15675;52.870;-1.416;2023-05-22T05:19:07;101654.97;;;11.31;81.81
28448;BME280;15675;52.870;-1.416;2023-05-22T05:21:33;101649.91;;;11.39;80.71
28448;BME280;15675;52.870;-1.416;2023-05-22T05:23:59;101654.22;;;11.38;79.67
28448;BME280;15675;52.870;-1.416;2023-05-22T05:26:25;101657.94;;;11.54;79.04
28448;BME280;15675;52.870;-1.416;2023-05-22T05:28:52;101658.91;;;11.63;77.86
28448;BME280;15675;52.870;-1.416;2023-05-22T05:31:18;101656.47;;;11.75;76.54
28448;BME280;15675;52.870;-1.416;2023-05-22T05:33:45;101657.50;;;11.88;75.71
28448;BME280;15675;52.870;-1.416;2023-05-22T05:36:11;101654.44;;;12.18;76.22
28448;BME280;15675;52.870;-1.416;2023-05-22T05:38:37;101650.00;;;12.09;76.14
28448;BME280;15675;52.870;-1.416;2023-05-22T05:41:03;101650.31;;;12.34;75.54
28448;BME280;15675;52.870;-1.416;2023-05-22T05:43:30;101647.75;;;12.39;73.27
28448;BME280;15675;52.870;-1.416;2023-05-22T05:45:56;101645.22;;;12.47;73.62
28448;BME280;15675;52.870;-1.416;2023-05-22T05:48:22;101647.00;;;12.51;72.13
28448;BME280;15675;52.870;-1.416;2023-05-22T05:50:48;101653.19;;;12.60;71.04
28448;BME280;15675;52.870;-1.416;2023-05-22T05:53:14;101645.47;;;12.71;70.19
28448;BME280;15675;52.870;-1.416;2023-05-22T05:55:40;101654.31;;;12.89;67.14
28448;BME280;15675;52.870;-1.416;2023-05-22T05:58:06;101650.00;;;12.92;66.01
28448;BME280;15675;52.870;-1.416;2023-05-22T06:00:32;101656.25;;;13.11;64.80
28448;BME280;15675;52.870;-1.416;2023-05-22T06:02:58;101659.00;;;13.28;65.33
28448;BME280;15675;52.870;-1.416;2023-05-22T06:05:24;101662.53;;;13.35;63.65
28448;BME280;15675;52.870;-1.416;2023-05-22T06:07:51;101665.22;;;13.49;63.57
28448;BME280;15675;52.870;-1.416;2023-05-22T06:10:17;101665.25;;;13.52;63.75
28448;BME280;15675;52.870;-1.416;2023-05-22T06:12:43;101661.84;;;13.62;62.63
28448;BME280;15675;52.870;-1.416;2023-05-22T06:15:09;101660.13;;;13.69;61.80
28448;BME280;15675;52.870;-1.416;2023-05-22T06:17:37;101667.97;;;13.71;61.33
28448;BME280;15675;52.870;-1.416;2023-05-22T06:20:04;101675.03;;;13.87;60.59
28448;BME280;15675;52.870;-1.416;2023-05-22T06:22:31;101669.81;;;13.87;59.66
28448;BME280;15675;52.870;-1.416;2023-05-22T06:24:57;101670.69;;;13.91;60.06
28448;BME280;15675;52.870;-1.416;2023-05-22T06:27:23;101670.03;;;14.37;59.40
28448;BME280;15675;52.870;-1.416;2023-05-22T06:29:52;101667.44;;;14.58;58.32
28448;BME280;15675;52.870;-1.416;2023-05-22T06:32:18;101659.63;;;14.55;57.74
28448;BME280;15675;52.870;-1.416;2023-05-22T06:34:46;101664.00;;;14.75;57.02
28448;BME280;15675;52.870;-1.416;2023-05-22T06:37:13;101657.97;;;15.04;55.48
28448;BME280;15675;52.870;-1.416;2023-05-22T06:39:39;101658.69;;;14.33;55.89
28448;BME280;15675;52.870;-1.416;2023-05-22T06:42:05;101661.44;;;15.15;56.83
28448;BME280;15675;52.870;-1.416;2023-05-22T06:44:31;101660.53;;;15.48;56.67
28448;BME280;15675;52.870;-1.416;2023-05-22T06:46:57;101663.03;;;15.93;56.01
28448;BME280;15675;52.870;-1.416;2023-05-22T06:49:23;101655.94;;;16.23;55.33
28448;BME280;15675;52.870;-1.416;2023-05-22T06:51:49;101654.88;;;16.58;52.88
28448;BME280;15675;52.870;-1.416;2023-05-22T06:54:15;101653.63;;;17.10;52.18
28448;BME280;15675;52.870;-1.416;2023-05-22T06:56:42;101666.47;;;17.41;51.92
28448;BME280;15675;52.870;-1.416;2023-05-22T06:59:09;101661.75;;;17.72;50.63
28448;BME280;15675;52.870;-1.416;2023-05-22T07:01:36;101654.47;;;18.01;49.25
28448;BME280;15675;52.870;-1.416;2023-05-22T07:04:02;101647.56;;;17.89;47.99
28448;BME280;15675;52.870;-1.416;2023-05-22T07:06:30;101649.28;;;17.94;49.34
28448;BME280;15675;52.870;-1.416;2023-05-22T07:08:58;101658.94;;;17.89;48.08
28448;BME280;15675;52.870;-1.416;2023-05-22T07:11:24;101658.81;;;18.03;49.09
28448;BME280;15675;52.870;-1.416;2023-05-22T07:13:50;101667.00;;;17.74;48.61
28448;BME280;15675;52.870;-1.416;2023-05-22T07:16:16;101659.97;;;16.78;48.23
28448;BME280;15675;52.870;-1.416;2023-05-22T07:18:42;101667.13;;;16.56;48.91
28448;BME280;15675;52.870;-1.416;2023-05-22T07:21:10;101674.34;;;16.11;49.62
28448;BME280;15675;52.870;-1.416;2023-05-22T07:23:37;101677.88;;;15.93;51.11
28448;BME280;15675;52.870;-1.416;2023-05-22T07:26:03;101688.44;;;15.49;52.64
28448;BME280;15675;52.870;-1.416;2023-05-22T07:28:29;101696.22;;;15.90;53.20
28448;BME280;15675;52.870;-1.416;2023-05-22T07:30:55;101689.88;;;16.42;52.90
28448;BME280;15675;52.870;-1.416;2023-05-22T07:33:22;101688.25;;;16.17;50.77
28448;BME280;15675;52.870;-1.416;2023-05-22T07:35:48;101689.16;;;16.15;51.42
28448;BME280;15675;52.870;-1.416;2023-05-22T07:38:13;101691.91;;;15.54;52.99
28448;BME280;15675;52.870;-1.416;2023-05-22T07:40:39;101705.00;;;15.34;52.47
28448;BME280;15675;52.870;-1.416;2023-05-22T07:43:05;101696.28;;;15.26;52.49
28448;BME280;15675;52.870;-1.416;2023-05-22T07:45:31;101701.50;;;15.45;53.59
28448;BME280;15675;52.870;-1.416;2023-05-22T07:47:57;101705.84;;;15.49;53.71
28448;BME280;15675;52.870;-1.416;2023-05-22T07:50:24;101714.59;;;15.26;52.56
28448;BME280;15675;52.870;-1.416;2023-05-22T07:52:51;101711.97;;;15.54;53.89
28448;BME280;15675;52.870;-1.416;2023-05-22T07:55:17;101705.81;;;15.67;53.60
28448;BME280;15675;52.870;-1.416;2023-05-22T07:57:43;101704.97;;;15.81;53.42
28448;BME280;15675;52.870;-1.416;2023-05-22T08:00:10;101704.09;;;15.71;52.73
28448;BME280;15675;52.870;-1.416;2023-05-22T08:02:38;101715.44;;;15.76;52.99
28448;BME280;15675;52.870;-1.416;2023-05-22T08:05:04;101715.44;;;15.82;52.56
28448;BME280;15675;52.870;-1.416;2023-05-22T08:07:31;101718.91;;;15.94;51.83
28448;BME280;15675;52.870;-1.416;2023-05-22T08:09:58;101721.47;;;16.11;50.86
28448;BME280;15675;52.870;-1.416;2023-05-22T08:12:24;101720.59;;;16.07;50.50
28448;BME280;15675;52.870;-1.416;2023-05-22T08:14:50;101728.41;;;16.24;51.55
28448;BME280;15675;52.870;-1.416;2023-05-22T08:17:16;101733.66;;;16.19;51.67
28448;BME280;15675;52.870;-1.416;2023-05-22T08:19:41;101728.47;;;16.02;51.16
28448;BME280;15675;52.870;-1.416;2023-05-22T08:22:07;101723.13;;;16.35;51.59
28448;BME280;15675;52.870;-1.416;2023-05-22T08:24:33;101734.44;;;16.46;53.30
28448;BME280;15675;52.870;-1.416;2023-05-22T08:26:59;101723.94;;;16.40;51.52
28448;BME280;15675;52.870;-1.416;2023-05-22T08:29:25;101724.78;;;16.48;51.30
28448;BME280;15675;52.870;-1.416;2023-05-22T08:31:51;101715.03;;;16.75;51.16
28448;BME280;15675;52.870;-1.416;2023-05-22T08:34:18;101723.19;;;16.18;50.88
28448;BME280;15675;52.870;-1.416;2023-05-22T08:36:44;101720.38;;;16.56;50.63
28448;BME280;15675;52.870;-1.416;2023-05-22T08:39:10;101729.06;;;16.68;50.58
28448;BME280;15675;52.870;-1.416;2023-05-22T08:41:37;101731.78;;;16.48;49.79
28448;BME280;15675;52.870;-1.416;2023-05-22T08:44:03;101729.03;;;16.71;51.35
28448;BME280;15675;52.870;-1.416;2023-05-22T08:46:29;101733.34;;;16.81;52.38
28448;BME280;15675;52.870;-1.416;2023-05-22T08:48:56;101730.63;;;17.00;51.48
28448;BME280;15675;52.870;-1.416;2023-05-22T08:51:27;101729.91;;;16.74;49.97
28448;BME280;15675;52.870;-1.416;2023-05-22T08:53:55;101730.66;;;16.98;50.94
28448;BME280;15675;52.870;-1.416;2023-05-22T08:56:22;101734.16;;;17.00;50.17
28448;BME280;15675;52.870;-1.416;2023-05-22T08:58:49;101730.63;;;17.01;50.08
28448;BME280;15675;52.870;-1.416;2023-05-22T09:01:16;101733.19;;;17.09;51.00
28448;BME280;15675;52.870;-1.416;2023-05-22T09:03:42;101735.81;;;17.09;50.29
28448;BME280;15675;52.870;-1.416;2023-05-22T09:06:08;101732.09;;;17.38;50.82
28448;BME280;15675;52.870;-1.416;2023-05-22T09:08:36;101727.38;;;17.72;50.47
28448;BME280;15675;52.870;-1.416;2023-05-22T09:11:02;101729.50;;;17.33;50.12
28448;BME280;15675;52.870;-1.416;2023-05-22T09:13:29;101730.16;;;17.60;49.68
28448;BME280;15675;52.870;-1.416;2023-05-22T09:15:57;101733.28;;;17.98;49.79
28448;BME280;15675;52.870;-1.416;2023-05-22T09:18:27;101729.03;;;17.81;49.35
28448;BME280;15675;52.870;-1.416;2023-05-22T09:20:57;101734.25;;;17.90;51.12
28448;BME280;15675;52.870;-1.416;2023-05-22T09:23:26;101727.97;;;18.04;50.49
28448;BME280;15675;52.870;-1.416;2023-05-22T09:25:57;101730.59;;;18.04;49.94
28448;BME280;15675;52.870;-1.416;2023-05-22T09:28:24;101741.28;;;17.84;49.48
28448;BME280;15675;52.870;-1.416;2023-05-22T09:30:51;101724.53;;;17.96;48.70
28448;BME280;15675;52.870;-1.416;2023-05-22T09:33:18;101732.41;;;17.99;49.01
28448;BME280;15675;52.870;-1.416;2023-05-22T09:35:45;101732.22;;;18.13;50.95
28448;BME280;15675;52.870;-1.416;2023-05-22T09:38:12;101730.81;;;17.81;50.83
28448;BME280;15675;52.870;-1.416;2023-05-22T09:40:39;101734.25;;;17.87;51.01
28448;BME280;15675;52.870;-1.416;2023-05-22T09:43:07;101735.19;;;17.82;50.85
28448;BME280;15675;52.870;-1.416;2023-05-22T09:45:34;101732.47;;;17.92;52.73
28448;BME280;15675;52.870;-1.416;2023-05-22T09:48:02;101730.69;;;17.96;52.16
28448;BME280;15675;52.870;-1.416;2023-05-22T09:50:32;101732.41;;;18.00;52.27
28448;BME280;15675;52.870;-1.416;2023-05-22T09:53:02;101739.34;;;18.04;52.17
28448;BME280;15675;52.870;-1.416;2023-05-22T09:55:30;101729.34;;;18.33;53.14
28448;BME280;15675;52.870;-1.416;2023-05-22T09:57:57;101726.63;;;18.42;52.04
28448;BME280;15675;52.870;-1.416;2023-05-22T10:00:26;101728.59;;;18.26;51.51
28448;BME280;15675;52.870;-1.416;2023-05-22T10:02:57;101722.22;;;17.66;50.67
28448;BME280;15675;52.870;-1.416;2023-05-22T10:05:30;101736.03;;;17.84;50.44
28448;BME280;15675;52.870;-1.416;2023-05-22T10:08:02;101722.69;;;18.05;50.80
28448;BME280;15675;52.870;-1.416;2023-05-22T10:10:29;101730.72;;;17.93;50.14
28448;BME280;15675;52.870;-1.416;2023-05-22T10:12:56;101727.63;;;18.32;51.09
28448;BME280;15675;52.870;-1.416;2023-05-22T10:15:22;101715.50;;;18.84;50.40
28448;BME280;15675;52.870;-1.416;2023-05-22T10:17:49;101709.47;;;18.78;50.13
28448;BME280;15675;52.870;-1.416;2023-05-22T10:20:15;101723.56;;;18.74;49.94
28448;BME280;15675;52.870;-1.416;2023-05-22T10:22:42;101723.19;;;18.37;50.73
28448;BME280;15675;52.870;-1.416;2023-05-22T10:25:09;101724.88;;;18.41;49.69
28448;BME280;15675;52.870;-1.416;2023-05-22T10:27:37;101734.19;;;17.95;49.39
28448;BME280;15675;52.870;-1.416;2023-05-22T10:30:28;101738.47;;;18.02;49.86
28448;BME280;15675;52.870;-1.416;2023-05-22T10:33:04;101732.22;;;18.13;50.16
28448;BME280;15675;52.870;-1.416;2023-05-22T10:35:46;101744.84;;;18.56;51.37
28448;BME280;15675;52.870;-1.416;2023-05-22T10:38:59;101740.25;;;18.72;51.04
28448;BME280;15675;52.870;-1.416;2023-05-22T10:41:22;101742.25;;;18.51;50.87
28448;BME280;15675;52.870;-1.416;2023-05-22T10:43:49;101750.59;;;18.17;49.59
28448;BME280;15675;52.870;-1.416;2023-05-22T10:46:15;101735.22;;;18.55;49.23
28448;BME280;15675;52.870;-1.416;2023-05-22T10:48:44;101723.78;;;18.59;48.59
28448;BME280;15675;52.870;-1.416;2023-05-22T10:51:12;101735.69;;;18.83;50.71
28448;BME280;15675;52.870;-1.416;2023-05-22T10:53:39;101726.03;;;18.84;49.08
28448;BME280;15675;52.870;-1.416;2023-05-22T10:56:10;101717.09;;;18.99;47.79
28448;BME280;15675;52.870;-1.416;2023-05-22T10:58:36;101723.47;;;19.37;50.54
28448;BME280;15675;52.870;-1.416;2023-05-22T11:01:15;101724.66;;;19.19;48.16
28448;BME280;15675;52.870;-1.416;2023-05-22T11:04:09;101727.47;;;18.42;46.45
28448;BME280;15675;52.870;-1.416;2023-05-22T11:06:43;101714.22;;;18.53;46.40
28448;BME280;15675;52.870;-1.416;2023-05-22T11:09:28;101714.13;;;18.59;46.29
28448;BME280;15675;52.870;-1.416;2023-05-22T11:12:23;101703.88;;;18.39;45.46
28448;BME280;15675;52.870;-1.416;2023-05-22T11:15:01;101694.25;;;18.40;45.68
28448;BME280;15675;52.870;-1.416;2023-05-22T11:17:29;101705.31;;;18.62;44.83
28448;BME280;15675;52.870;-1.416;2023-05-22T11:19:56;101702.25;;;18.31;42.79
28448;BME280;15675;52.870;-1.416;2023-05-22T11:22:30;101690.84;;;18.32;43.72
28448;BME280;15675;52.870;-1.416;2023-05-22T11:24:57;101701.28;;;18.36;43.37
28448;BME280;15675;52.870;-1.416;2023-05-22T11:27:23;101698.84;;;18.88;44.44
28448;BME280;15675;52.870;-1.416;2023-05-22T11:29:49;101704.59;;;18.51;44.10
28448;BME280;15675;52.870;-1.416;2023-05-22T11:32:15;101689.31;;;18.77;44.73
28448;BME280;15675;52.870;-1.416;2023-05-22T11:34:46;101689.94;;;18.95;43.62
28448;BME280;15675;52.870;-1.416;2023-05-22T11:37:16;101683.88;;;18.91;43.51
28448;BME280;15675;52.870;-1.416;2023-05-22T11:39:55;101690.56;;;19.11;43.94
28448;BME280;15675;52.870;-1.416;2023-05-22T11:42:21;101691.25;;;19.22;43.85
28448;BME280;15675;52.870;-1.416;2023-05-22T11:44:47;101673.66;;;19.26;42.66
28448;BME280;15675;52.870;-1.416;2023-05-22T11:47:13;101681.84;;;19.59;44.48
28448;BME280;15675;52.870;-1.416;2023-05-22T11:49:40;101678.22;;;19.64;42.22
28448;BME280;15675;52.870;-1.416;2023-05-22T11:52:07;101687.50;;;19.37;42.42
28448;BME280;15675;52.870;-1.416;2023-05-22T11:54:33;101675.25;;;19.35;43.29
28448;BME280;15675;52.870;-1.416;2023-05-22T11:57:02;101680.97;;;19.58;43.54
28448;BME280;15675;52.870;-1.416;2023-05-22T11:59:28;101680.78;;;19.67;43.48
28448;BME280;15675;52.870;-1.416;2023-05-22T12:01:55;101677.53;;;20.02;43.96
28448;BME280;15675;52.870;-1.416;2023-05-22T12:04:21;101667.25;;;19.88;43.91
28448;BME280;15675;52.870;-1.416;2023-05-22T12:06:47;101668.72;;;20.03;44.23
28448;BME280;15675;52.870;-1.416;2023-05-22T12:09:13;101674.09;;;19.49;44.20
28448;BME280;15675;52.870;-1.416;2023-05-22T12:11:44;101663.78;;;19.87;43.90
28448;BME280;15675;52.870;-1.416;2023-05-22T12:14:11;101669.13;;;19.82;44.02
28448;BME280;15675;52.870;-1.416;2023-05-22T12:16:37;101648.03;;;19.84;43.03
28448;BME280;15675;52.870;-1.416;2023-05-22T12:19:04;101648.44;;;20.06;43.50
28448;BME280;15675;52.870;-1.416;2023-05-22T12:21:31;101674.88;;;20.44;46.30
28448;BME280;15675;52.870;-1.416;2023-05-22T12:23:57;101660.81;;;20.03;44.13
28448;BME280;15675;52.870;-1.416;2023-05-22T12:26:23;101659.25;;;19.92;43.48
28448;BME280;15675;52.870;-1.416;2023-05-22T12:28:53;101645.47;;;19.81;44.75
28448;BME280;15675;52.870;-1.416;2023-05-22T12:31:20;101645.16;;;20.35;47.12
28448;BME280;15675;52.870;-1.416;2023-05-22T12:33:47;101649.88;;;20.21;45.13
28448;BME280;15675;52.870;-1.416;2023-05-22T12:36:13;101647.66;;;20.42;44.00
28448;BME280;15675;52.870;-1.416;2023-05-22T12:38:39;101641.72;;;20.32;44.07
28448;BME280;15675;52.870;-1.416;2023-05-22T12:41:05;101644.47;;;20.65;44.83
28448;BME280;15675;52.870;-1.416;2023-05-22T12:43:31;101632.06;;;20.72;43.02